sensor_id;sensor_type;location;lat;lon;timestamp;temperature;humidity
8711;DHT22;4392;47.400;8.062;2022-10-17T00:02:00;16.70;99.90
8711;DHT22;4392;47.400;8.062;2022-10-17T00:04:25;16.70;99.90
8711;DHT22;4392;47.400;8.062;2022-10-17T00:06:51;16.70;99.90
8711;DHT22;4392;47.400;8.062;2022-10-17T00:09:17;16.70;99.90
8711;DHT22;4392;47.400;8.062;2022-10-17T00:11:45;16.60;99.90
8711;DHT22;4392;47.400;8.062;2022-10-17T00:14:10;16.60;99.90
8711;DHT22;4392;47.400;8.062;2022-10-17T00:16:36;16.60;99.90
8711;DHT22;4392;47.400;8.062;2022-10-17T00:19:04;16.50;99.90
8711;DHT22;4392;47.400;8.062;2022-10-17T00:21:30;16.50;99.90
8711;DHT22;4392;47.400;8.062;2022-10-17T00:23:58;16.50;99.90
8711;DHT22;4392;47.400;8.062;2022-10-17T00:26:24;16.50;99.90
8711;DHT22;4392;47.400;8.062;2022-10-17T00:28:51;16.50;99.90
8711;DHT22;4392;47.400;8.062;2022-10-17T00:31:19;16.40;99.90
8711;DHT22;4392;47.400;8.062;2022-10-17T00:33:45;16.50;99.90
8711;DHT22;4392;47.400;8.062;2022-10-17T00:36:13;16.50;99.90
8711;DHT22;4392;47.400;8.062;2022-10-17T00:38:41;16.50;99.90
8711;DHT22;4392;47.400;8.062;2022-10-17T00:41:09;16.40;99.90
8711;DHT22;4392;47.400;8.062;2022-10-17T00:46:23;16.40;99.90
8711;DHT22;4392;47.400;8.062;2022-10-17T00:48:52;16.30;99.90
8711;DHT22;4392;47.400;8.062;2022-10-17T00:51:22;16.30;99.90
8711;DHT22;4392;47.400;8.062;2022-10-17T00:53:51;16.30;99.90
8711;DHT22;4392;47.400;8.062;2022-10-17T00:56:18;16.30;99.90
8711;DHT22;4392;47.400;8.062;2022-10-17T00:58:45;16.30;99.90
8711;DHT22;4392;47.400;8.062;2022-10-17T01:01:12;16.20;99.90
8711;DHT22;4392;47.400;8.062;2022-10-17T01:03:38;16.20;99.90
8711;DHT22;4392;47.400;8.062;2022-10-17T01:06:04;16.20;99.90
8711;DHT22;4392;47.400;8.062;2022-10-17T01:08:32;16.20;99.90
8711;DHT22;4392;47.400;8.062;2022-10-17T01:11:13;16.20;99.90
8711;DHT22;4392;47.400;8.062;2022-10-17T01:14:28;16.20;99.90
8711;DHT22;4392;47.400;8.062;2022-10-17T01:22:16;16.10;99.90
8711;DHT22;4392;47.400;8.062;2022-10-17T01:27:41;16.10;99.90
8711;DHT22;4392;47.400;8.062;2022-10-17T01:35:50;16.10;99.90
8711;DHT22;4392;47.400;8.062;2022-10-17T01:38:33;16.00;99.90
8711;DHT22;4392;47.400;8.062;2022-10-17T01:44:28;15.90;99.90
8711;DHT22;4392;47.400;8.062;2022-10-17T01:47:11;15.90;99.90
8711;DHT22;4392;47.400;8.062;2022-10-17T01:49:39;15.90;99.90
8711;DHT22;4392;47.400;8.062;2022-10-17T01:52:10;15.90;99.90
8711;DHT22;4392;47.400;8.062;2022-10-17T01:54:41;15.90;99.90
8711;DHT22;4392;47.400;8.062;2022-10-17T01:57:29;15.90;99.90
8711;DHT22;4392;47.400;8.062;2022-10-17T01:59:57;15.80;99.90
8711;DHT22;4392;47.400;8.062;2022-10-17T02:02:25;15.80;99.90
8711;DHT22;4392;47.400;8.062;2022-10-17T02:04:55;15.80;99.90
8711;DHT22;4392;47.400;8.062;2022-10-17T02:07:21;15.80;99.90
8711;DHT22;4392;47.400;8.062;2022-10-17T02:09:47;15.80;99.90
8711;DHT22;4392;47.400;8.062;2022-10-17T02:12:40;15.80;99.90
8711;DHT22;4392;47.400;8.062;2022-10-17T02:18:06;15.70;99.90
8711;DHT22;4392;47.400;8.062;2022-10-17T02:20:48;15.70;99.90
8711;DHT22;4392;47.400;8.062;2022-10-17T02:28:39;15.70;99.90
8711;DHT22;4392;47.400;8.062;2022-10-17T02:31:21;15.70;99.90
8711;DHT22;4392;47.400;8.062;2022-10-17T02:34:01;15.70;99.90
8711;DHT22;4392;47.400;8.062;2022-10-17T02:36:33;15.70;99.90
8711;DHT22;4392;47.400;8.062;2022-10-17T02:39:02;15.70;99.90
8711;DHT22;4392;47.400;8.062;2022-10-17T02:41:29;15.70;99.90
8711;DHT22;4392;47.400;8.062;2022-10-17T02:43:56;15.70;99.90
8711;DHT22;4392;47.400;8.062;2022-10-17T02:46:23;15.70;99.90
8711;DHT22;4392;47.400;8.062;2022-10-17T02:49:08;15.70;99.90
8711;DHT22;4392;47.400;8.062;2022-10-17T02:57:07;15.60;99.90
8711;DHT22;4392;47.400;8.062;2022-10-17T02:59:35;15.70;99.90
8711;DHT22;4392;47.400;8.062;2022-10-17T03:02:06;15.70;99.90
8711;DHT22;4392;47.400;8.062;2022-10-17T03:04:32;15.60;99.90
8711;DHT22;4392;47.400;8.062;2022-10-17T03:07:01;15.60;99.90
8711;DHT22;4392;47.400;8.062;2022-10-17T03:09:26;15.60;99.90
8711;DHT22;4392;47.400;8.062;2022-10-17T03:11:52;15.60;99.90
8711;DHT22;4392;47.400;8.062;2022-10-17T03:14:18;15.60;99.90
8711;DHT22;4392;47.400;8.062;2022-10-17T03:16:44;15.60;99.90
8711;DHT22;4392;47.400;8.062;2022-10-17T03:19:09;15.60;99.90
8711;DHT22;4392;47.400;8.062;2022-10-17T03:21:35;15.60;99.90
8711;DHT22;4392;47.400;8.062;2022-10-17T03:24:03;15.70;99.90
8711;DHT22;4392;47.400;8.062;2022-10-17T03:26:29;15.70;99.90
8711;DHT22;4392;47.400;8.062;2022-10-17T03:28:55;15.70;99.90
8711;DHT22;4392;47.400;8.062;2022-10-17T03:31:21;15.70;99.90
8711;DHT22;4392;47.400;8.062;2022-10-17T03:33:47;15.60;99.90
8711;DHT22;4392;47.400;8.062;2022-10-17T03:36:15;15.70;99.90
8711;DHT22;4392;47.400;8.062;2022-10-17T03:38:41;15.70;99.90
8711;DHT22;4392;47.400;8.062;2022-10-17T03:41:07;15.70;99.90
8711;DHT22;4392;47.400;8.062;2022-10-17T03:43:33;15.60;99.90
8711;DHT22;4392;47.400;8.062;2022-10-17T03:46:00;15.60;99.90
8711;DHT22;4392;47.400;8.062;2022-10-17T03:48:27;15.60;99.90
8711;DHT22;4392;47.400;8.062;2022-10-17T03:51:03;15.60;99.90
8711;DHT22;4392;47.400;8.062;2022-10-17T03:53:29;15.70;99.90
8711;DHT22;4392;47.400;8.062;2022-10-17T03:55:55;15.70;99.90
8711;DHT22;4392;47.400;8.062;2022-10-17T03:58:22;15.60;99.90
8711;DHT22;4392;47.400;8.062;2022-10-17T04:00:55;15.60;99.90
8711;DHT22;4392;47.400;8.062;2022-10-17T04:03:21;15.50;99.90
8711;DHT22;4392;47.400;8.062;2022-10-17T04:05:46;15.50;99.90
8711;DHT22;4392;47.400;8.062;2022-10-17T04:08:12;15.50;99.90
8711;DHT22;4392;47.400;8.062;2022-10-17T04:10:38;15.50;99.90
8711;DHT22;4392;47.400;8.062;2022-10-17T04:13:04;15.60;99.90
8711;DHT22;4392;47.400;8.062;2022-10-17T04:15:32;15.60;99.90
8711;DHT22;4392;47.400;8.062;2022-10-17T04:17:57;15.60;99.90
8711;DHT22;4392;47.400;8.062;2022-10-17T04:20:23;15.50;99.90
8711;DHT22;4392;47.400;8.062;2022-10-17T04:22:49;15.50;99.90
8711;DHT22;4392;47.400;8.062;2022-10-17T04:25:15;15.50;99.90
8711;DHT22;4392;47.400;8.062;2022-10-17T04:27:41;15.60;99.90
8711;DHT22;4392;47.400;8.062;2022-10-17T04:30:07;15.50;99.90
8711;DHT22;4392;47.400;8.062;2022-10-17T04:32:36;15.50;99.90
8711;DHT22;4392;47.400;8.062;2022-10-17T04:35:03;15.50;99.90
8711;DHT22;4392;47.400;8.062;2022-10-17T04:37:29;15.40;99.90
8711;DHT22;4392;47.400;8.062;2022-10-17T04:39:55;15.40;99.90
8711;DHT22;4392;47.400;8.062;2022-10-17T04:42:20;15.40;99.90
8711;DHT22;4392;47.400;8.062;2022-10-17T04:44:46;15.40;99.90
8711;DHT22;4392;47.400;8.062;2022-10-17T04:47:12;15.40;99.90
8711;DHT22;4392;47.400;8.062;2022-10-17T04:49:38;15.40;99.90
8711;DHT22;4392;47.400;8.062;2022-10-17T04:52:04;15.40;99.90
8711;DHT22;4392;47.400;8.062;2022-10-17T04:54:29;15.40;99.90
8711;DHT22;4392;47.400;8.062;2022-10-17T04:56:55;15.40;99.90
8711;DHT22;4392;47.400;8.062;2022-10-17T04:59:21;15.40;99.90
8711;DHT22;4392;47.400;8.062;2022-10-17T05:01:48;15.40;99.90
8711;DHT22;4392;47.400;8.062;2022-10-17T05:04:14;15.30;99.90
8711;DHT22;4392;47.400;8.062;2022-10-17T05:06:39;15.40;99.90
8711;DHT22;4392;47.400;8.062;2022-10-17T05:09:05;15.30;99.90
8711;DHT22;4392;47.400;8.062;2022-10-17T05:11:31;15.40;99.90
8711;DHT22;4392;47.400;8.062;2022-10-17T05:13:58;15.40;99.90
8711;DHT22;4392;47.400;8.062;2022-10-17T05:16:25;15.40;99.90
8711;DHT22;4392;47.400;8.062;2022-10-17T05:18:53;15.40;99.90
8711;DHT22;4392;47.400;8.062;2022-10-17T05:21:20;15.40;99.90
8711;DHT22;4392;47.400;8.062;2022-10-17T05:23:46;15.30;99.90
8711;DHT22;4392;47.400;8.062;2022-10-17T05:26:13;15.40;99.90
8711;DHT22;4392;47.400;8.062;2022-10-17T05:28:39;15.30;99.90
8711;DHT22;4392;47.400;8.062;2022-10-17T05:31:06;15.30;99.90
8711;DHT22;4392;47.400;8.062;2022-10-17T05:33:33;15.30;99.90
8711;DHT22;4392;47.400;8.062;2022-10-17T05:35:59;15.30;99.90
8711;DHT22;4392;47.400;8.062;2022-10-17T05:38:28;15.30;99.90
8711;DHT22;4392;47.400;8.062;2022-10-17T05:41:01;15.30;99.90
8711;DHT22;4392;47.400;8.062;2022-10-17T05:43:27;15.20;99.90
8711;DHT22;4392;47.400;8.062;2022-10-17T05:45:53;15.20;99.90
8711;DHT22;4392;47.400;8.062;2022-10-17T05:48:22;15.20;99.90
8711;DHT22;4392;47.400;8.062;2022-10-17T05:50:48;15.20;99.90
8711;DHT22;4392;47.400;8.062;2022-10-17T05:53:15;15.20;99.90
8711;DHT22;4392;47.400;8.062;2022-10-17T05:55:43;15.20;99.90
8711;DHT22;4392;47.400;8.062;2022-10-17T05:58:09;15.20;99.90
8711;DHT22;4392;47.400;8.062;2022-10-17T06:00:35;15.20;99.90
8711;DHT22;4392;47.400;8.062;2022-10-17T06:03:00;15.20;99.90
8711;DHT22;4392;47.400;8.062;2022-10-17T06:05:26;15.20;99.90
8711;DHT22;4392;47.400;8.062;2022-10-17T06:07:52;15.20;99.90
8711;DHT22;4392;47.400;8.062;2022-10-17T06:10:18;15.20;99.90
8711;DHT22;4392;47.400;8.062;2022-10-17T06:12:44;15.20;99.90
8711;DHT22;4392;47.400;8.062;2022-10-17T06:15:11;15.30;99.90
8711;DHT22;4392;47.400;8.062;2022-10-17T06:17:37;15.20;99.90
8711;DHT22;4392;47.400;8.062;2022-10-17T06:20:03;15.20;99.90
8711;DHT22;4392;47.400;8.062;2022-10-17T06:22:29;15.30;99.90
8711;DHT22;4392;47.400;8.062;2022-10-17T06:24:55;15.20;99.90
8711;DHT22;4392;47.400;8.062;2022-10-17T06:27:21;15.20;99.90
8711;DHT22;4392;47.400;8.062;2022-10-17T06:29:47;15.10;99.90
8711;DHT22;4392;47.400;8.062;2022-10-17T06:32:13;15.30;99.90
8711;DHT22;4392;47.400;8.062;2022-10-17T06:34:39;15.40;99.90
8711;DHT22;4392;47.400;8.062;2022-10-17T06:37:05;15.20;99.90
8711;DHT22;4392;47.400;8.062;2022-10-17T06:39:30;15.20;99.90
8711;DHT22;4392;47.400;8.062;2022-10-17T06:42:02;15.30;99.90
8711;DHT22;4392;47.400;8.062;2022-10-17T06:44:28;15.30;99.90
8711;DHT22;4392;47.400;8.062;2022-10-17T06:46:57;15.30;99.90
8711;DHT22;4392;47.400;8.062;2022-10-17T06:49:23;15.30;99.90
8711;DHT22;4392;47.400;8.062;2022-10-17T06:51:50;15.30;99.90
8711;DHT22;4392;47.400;8.062;2022-10-17T06:54:15;15.40;99.90
8711;DHT22;4392;47.400;8.062;2022-10-17T06:56:41;15.40;99.90
8711;DHT22;4392;47.400;8.062;2022-10-17T06:59:08;15.40;99.90
8711;DHT22;4392;47.400;8.062;2022-10-17T07:01:34;15.40;99.90
8711;DHT22;4392;47.400;8.062;2022-10-17T07:04:00;15.40;99.90
8711;DHT22;4392;47.400;8.062;2022-10-17T07:06:31;15.40;99.90
8711;DHT22;4392;47.400;8.062;2022-10-17T07:08:58;15.40;99.90
8711;DHT22;4392;47.400;8.062;2022-10-17T07:11:25;15.50;99.90
8711;DHT22;4392;47.400;8.062;2022-10-17T07:13:51;15.40;99.90
8711;DHT22;4392;47.400;8.062;2022-10-17T07:16:17;15.50;99.90
8711;DHT22;4392;47.400;8.062;2022-10-17T07:18:43;15.50;99.90
8711;DHT22;4392;47.400;8.062;2022-10-17T07:21:08;15.50;99.90
8711;DHT22;4392;47.400;8.062;2022-10-17T07:23:35;15.50;99.90
8711;DHT22;4392;47.400;8.062;2022-10-17T07:26:04;15.40;99.90
8711;DHT22;4392;47.400;8.062;2022-10-17T07:28:34;15.40;99.90
8711;DHT22;4392;47.400;8.062;2022-10-17T07:31:05;15.40;99.90
8711;DHT22;4392;47.400;8.062;2022-10-17T07:33:31;15.40;99.90
8711;DHT22;4392;47.400;8.062;2022-10-17T07:36:00;15.40;99.90
8711;DHT22;4392;47.400;8.062;2022-10-17T07:38:27;15.40;99.90
8711;DHT22;4392;47.400;8.062;2022-10-17T07:40:58;15.40;99.90
8711;DHT22;4392;47.400;8.062;2022-10-17T07:43:25;15.40;99.90
8711;DHT22;4392;47.400;8.062;2022-10-17T07:45:52;15.40;99.90
8711;DHT22;4392;47.400;8.062;2022-10-17T07:48:20;15.40;99.90
8711;DHT22;4392;47.400;8.062;2022-10-17T07:50:46;15.40;99.90
8711;DHT22;4392;47.400;8.062;2022-10-17T07:53:12;15.40;99.90
8711;DHT22;4392;47.400;8.062;2022-10-17T07:55:39;15.40;99.90
8711;DHT22;4392;47.400;8.062;2022-10-17T07:58:07;15.40;99.90
8711;DHT22;4392;47.400;8.062;2022-10-17T08:00:33;15.40;99.90
8711;DHT22;4392;47.400;8.062;2022-10-17T08:02:59;15.40;99.90
8711;DHT22;4392;47.400;8.062;2022-10-17T08:05:25;15.40;99.90
8711;DHT22;4392;47.400;8.062;2022-10-17T08:07:51;15.50;99.90
8711;DHT22;4392;47.400;8.062;2022-10-17T08:10:17;15.50;99.90
8711;DHT22;4392;47.400;8.062;2022-10-17T08:12:45;15.50;99.90
8711;DHT22;4392;47.400;8.062;2022-10-17T08:15:11;15.50;99.90
8711;DHT22;4392;47.400;8.062;2022-10-17T08:17:37;15.60;99.90
8711;DHT22;4392;47.400;8.062;2022-10-17T08:20:04;15.60;99.90
8711;DHT22;4392;47.400;8.062;2022-10-17T08:22:31;15.60;99.90
8711;DHT22;4392;47.400;8.062;2022-10-17T08:24:57;15.60;99.90
8711;DHT22;4392;47.400;8.062;2022-10-17T08:27:25;15.70;99.90
8711;DHT22;4392;47.400;8.062;2022-10-17T08:29:54;15.70;99.90
8711;DHT22;4392;47.400;8.062;2022-10-17T08:32:22;15.70;99.90
8711;DHT22;4392;47.400;8.062;2022-10-17T08:34:50;15.70;99.90
8711;DHT22;4392;47.400;8.062;2022-10-17T08:37:16;15.80;99.90
8711;DHT22;4392;47.400;8.062;2022-10-17T08:39:42;15.70;99.90
8711;DHT22;4392;47.400;8.062;2022-10-17T08:48:02;15.70;99.90
8711;DHT22;4392;47.400;8.062;2022-10-17T08:50:34;15.80;99.90
8711;DHT22;4392;47.400;8.062;2022-10-17T08:53:08;15.80;99.90
8711;DHT22;4392;47.400;8.062;2022-10-17T08:55:48;15.90;99.90
8711;DHT22;4392;47.400;8.062;2022-10-17T08:58:21;15.90;99.90
8711;DHT22;4392;47.400;8.062;2022-10-17T09:12:23;16.00;99.90
8711;DHT22;4392;47.400;8.062;2022-10-17T09:20:16;16.30;99.90
8711;DHT22;4392;47.400;8.062;2022-10-17T09:23:11;16.40;99.90
8711;DHT22;4392;47.400;8.062;2022-10-17T09:25:43;16.50;99.90
8711;DHT22;4392;47.400;8.062;2022-10-17T09:28:11;16.30;99.90
8711;DHT22;4392;47.400;8.062;2022-10-17T09:31:03;16.40;99.90
8711;DHT22;4392;47.400;8.062;2022-10-17T09:33:41;16.40;99.90
8711;DHT22;4392;47.400;8.062;2022-10-17T09:36:34;16.50;99.90
8711;DHT22;4392;47.400;8.062;2022-10-17T09:39:24;16.50;99.90
8711;DHT22;4392;47.400;8.062;2022-10-17T09:41:54;16.50;99.90
8711;DHT22;4392;47.400;8.062;2022-10-17T09:44:22;16.60;99.90
8711;DHT22;4392;47.400;8.062;2022-10-17T09:49:36;16.60;99.90
8711;DHT22;4392;47.400;8.062;2022-10-17T09:52:11;16.60;99.90
8711;DHT22;4392;47.400;8.062;2022-10-17T09:54:47;16.70;99.90
8711;DHT22;4392;47.400;8.062;2022-10-17T09:57:17;16.70;99.90
8711;DHT22;4392;47.400;8.062;2022-10-17T10:00:19;16.70;99.90
8711;DHT22;4392;47.400;8.062;2022-10-17T10:02:33;16.70;99.90
8711;DHT22;4392;47.400;8.062;2022-10-17T10:05:14;16.70;99.90
8711;DHT22;4392;47.400;8.062;2022-10-17T10:07:42;16.70;99.90
8711;DHT22;4392;47.400;8.062;2022-10-17T10:10:29;16.80;99.90
8711;DHT22;4392;47.400;8.062;2022-10-17T10:15:37;16.80;99.90
8711;DHT22;4392;47.400;8.062;2022-10-17T10:23:33;16.90;99.90
8711;DHT22;4392;47.400;8.062;2022-10-17T10:28:59;16.90;99.90
8711;DHT22;4392;47.400;8.062;2022-10-17T10:31:32;17.00;99.90
8711;DHT22;4392;47.400;8.062;2022-10-17T10:34:00;17.10;99.90
8711;DHT22;4392;47.400;8.062;2022-10-17T10:36:48;17.10;99.90
8711;DHT22;4392;47.400;8.062;2022-10-17T10:41:54;17.10;99.90
8711;DHT22;4392;47.400;8.062;2022-10-17T10:44:23;17.20;99.90
8711;DHT22;4392;47.400;8.062;2022-10-17T10:47:16;17.20;99.90
8711;DHT22;4392;47.400;8.062;2022-10-17T10:49:43;17.20;99.90
8711;DHT22;4392;47.400;8.062;2022-10-17T10:52:21;17.30;99.90
8711;DHT22;4392;47.400;8.062;2022-10-17T10:55:02;17.40;99.90
8711;DHT22;4392;47.400;8.062;2022-10-17T10:57:32;17.40;99.90
8711;DHT22;4392;47.400;8.062;2022-10-17T11:00:11;17.50;99.90
8711;DHT22;4392;47.400;8.062;2022-10-17T11:03:03;17.50;99.90
8711;DHT22;4392;47.400;8.062;2022-10-17T11:05:48;17.40;99.90
8711;DHT22;4392;47.400;8.062;2022-10-17T11:14:16;17.40;99.90
8711;DHT22;4392;47.400;8.062;2022-10-17T11:19:34;17.40;99.90
8711;DHT22;4392;47.400;8.062;2022-10-17T11:22:51;17.40;99.90
8711;DHT22;4392;47.400;8.062;2022-10-17T11:24:57;17.50;99.90
8711;DHT22;4392;47.400;8.062;2022-10-17T11:27:28;17.60;99.90
8711;DHT22;4392;47.400;8.062;2022-10-17T11:29:55;17.50;99.90
8711;DHT22;4392;47.400;8.062;2022-10-17T11:32:35;17.60;99.90
8711;DHT22;4392;47.400;8.062;2022-10-17T11:35:31;17.60;99.90
8711;DHT22;4392;47.400;8.062;2022-10-17T11:40:50;17.60;99.90
8711;DHT22;4392;47.400;8.062;2022-10-17T11:43:22;17.70;99.90
8711;DHT22;4392;47.400;8.062;2022-10-17T11:51:24;17.80;99.90
8711;DHT22;4392;47.400;8.062;2022-10-17T12:02:22;17.90;99.90
8711;DHT22;4392;47.400;8.062;2022-10-17T12:07:50;18.00;99.90
8711;DHT22;4392;47.400;8.062;2022-10-17T12:10:38;18.00;99.90
8711;DHT22;4392;47.400;8.062;2022-10-17T12:15:57;18.10;99.90
8711;DHT22;4392;47.400;8.062;2022-10-17T12:18:44;18.10;99.90
8711;DHT22;4392;47.400;8.062;2022-10-17T12:21:10;18.10;99.90
8711;DHT22;4392;47.400;8.062;2022-10-17T12:23:38;18.20;99.90
8711;DHT22;4392;47.400;8.062;2022-10-17T12:26:09;18.20;99.90
8711;DHT22;4392;47.400;8.062;2022-10-17T12:28:47;18.20;99.90
8711;DHT22;4392;47.400;8.062;2022-10-17T12:33:58;18.80;99.90
8711;DHT22;4392;47.400;8.062;2022-10-17T12:47:28;19.30;99.90
8711;DHT22;4392;47.400;8.062;2022-10-17T12:49:59;19.40;99.90
8711;DHT22;4392;47.400;8.062;2022-10-17T12:57:37;19.50;99.90
8711;DHT22;4392;47.400;8.062;2022-10-17T13:00:36;19.50;99.90
8711;DHT22;4392;47.400;8.062;2022-10-17T13:03:29;19.60;99.90
8711;DHT22;4392;47.400;8.062;2022-10-17T13:06:00;19.70;99.90
8711;DHT22;4392;47.400;8.062;2022-10-17T13:08:38;19.70;99.90
8711;DHT22;4392;47.400;8.062;2022-10-17T13:11:05;19.80;99.90
8711;DHT22;4392;47.400;8.062;2022-10-17T13:16:02;20.00;99.90
8711;DHT22;4392;47.400;8.062;2022-10-17T13:18:29;20.10;99.90
8711;DHT22;4392;47.400;8.062;2022-10-17T13:23:34;20.20;99.90
8711;DHT22;4392;47.400;8.062;2022-10-17T13:28:29;20.50;99.90
8711;DHT22;4392;47.400;8.062;2022-10-17T13:30:55;20.50;99.90
8711;DHT22;4392;47.400;8.062;2022-10-17T13:33:32;20.60;99.90
8711;DHT22;4392;47.400;8.062;2022-10-17T13:36:00;21.70;99.90
8711;DHT22;4392;47.400;8.062;2022-10-17T13:38:30;22.00;99.90
8711;DHT22;4392;47.400;8.062;2022-10-17T13:41:01;21.40;99.90
8711;DHT22;4392;47.400;8.062;2022-10-17T13:43:29;21.10;99.90
8711;DHT22;4392;47.400;8.062;2022-10-17T13:46:00;21.00;99.90
8711;DHT22;4392;47.400;8.062;2022-10-17T13:48:32;21.10;99.90
8711;DHT22;4392;47.400;8.062;2022-10-17T13:51:02;21.10;99.90
8711;DHT22;4392;47.400;8.062;2022-10-17T13:53:38;21.10;99.90
8711;DHT22;4392;47.400;8.062;2022-10-17T13:59:16;21.20;99.90
8711;DHT22;4392;47.400;8.062;2022-10-17T14:01:46;21.20;99.90
8711;DHT22;4392;47.400;8.062;2022-10-17T14:04:14;21.30;99.90
8711;DHT22;4392;47.400;8.062;2022-10-17T14:06:44;21.50;99.90
8711;DHT22;4392;47.400;8.062;2022-10-17T14:09:23;21.60;99.90
8711;DHT22;4392;47.400;8.062;2022-10-17T14:12:16;21.60;99.90
8711;DHT22;4392;47.400;8.062;2022-10-17T14:14:48;21.70;99.90
8711;DHT22;4392;47.400;8.062;2022-10-17T14:17:24;21.70;99.60
8711;DHT22;4392;47.400;8.062;2022-10-17T14:19:56;21.80;99.90
8711;DHT22;4392;47.400;8.062;2022-10-17T14:22:26;21.80;99.20
8711;DHT22;4392;47.400;8.062;2022-10-17T14:24:52;21.90;98.70
8711;DHT22;4392;47.400;8.062;2022-10-17T14:27:33;21.90;99.10
8711;DHT22;4392;47.400;8.062;2022-10-17T14:30:27;22.10;98.50
8711;DHT22;4392;47.400;8.062;2022-10-17T14:33:01;22.20;97.30
8711;DHT22;4392;47.400;8.062;2022-10-17T14:35:29;22.30;96.90
8711;DHT22;4392;47.400;8.062;2022-10-17T14:38:01;22.20;96.60
8711;DHT22;4392;47.400;8.062;2022-10-17T14:40:28;22.20;96.50
8711;DHT22;4392;47.400;8.062;2022-10-17T14:42:56;22.20;96.50
8711;DHT22;4392;47.400;8.062;2022-10-17T14:45:27;22.20;96.30
8711;DHT22;4392;47.400;8.062;2022-10-17T14:47:55;22.40;95.50
8711;DHT22;4392;47.400;8.062;2022-10-17T14:50:25;22.60;94.90
8711;DHT22;4392;47.400;8.062;2022-10-17T14:53:06;22.60;95.10
8711;DHT22;4392;47.400;8.062;2022-10-17T14:55:58;22.60;94.70
8711;DHT22;4392;47.400;8.062;2022-10-17T14:58:26;22.60;94.80
8711;DHT22;4392;47.400;8.062;2022-10-17T15:00:53;22.70;94.30
8711;DHT22;4392;47.400;8.062;2022-10-17T15:03:19;22.70;94.00
8711;DHT22;4392;47.400;8.062;2022-10-17T15:05:55;22.70;94.30
8711;DHT22;4392;47.400;8.062;2022-10-17T15:08:22;22.70;94.20
8711;DHT22;4392;47.400;8.062;2022-10-17T15:10:49;22.70;94.20
8711;DHT22;4392;47.400;8.062;2022-10-17T15:13:16;22.70;94.10
8711;DHT22;4392;47.400;8.062;2022-10-17T15:15:42;22.70;93.70
8711;DHT22;4392;47.400;8.062;2022-10-17T15:18:10;22.80;93.30
8711;DHT22;4392;47.400;8.062;2022-10-17T15:20:37;22.90;93.00
8711;DHT22;4392;47.400;8.062;2022-10-17T15:23:03;22.90;93.20
8711;DHT22;4392;47.400;8.062;2022-10-17T15:25:30;23.00;92.90
8711;DHT22;4392;47.400;8.062;2022-10-17T15:27:57;23.00;92.90
8711;DHT22;4392;47.400;8.062;2022-10-17T15:30:29;23.00;92.90
8711;DHT22;4392;47.400;8.062;2022-10-17T15:32:57;22.90;92.90
8711;DHT22;4392;47.400;8.062;2022-10-17T15:35:26;23.00;92.10
8711;DHT22;4392;47.400;8.062;2022-10-17T15:37:53;22.90;92.70
8711;DHT22;4392;47.400;8.062;2022-10-17T15:40:22;22.90;92.50
8711;DHT22;4392;47.400;8.062;2022-10-17T15:42:48;22.90;92.80
8711;DHT22;4392;47.400;8.062;2022-10-17T15:45:17;22.90;92.70
8711;DHT22;4392;47.400;8.062;2022-10-17T15:47:48;22.90;92.70
8711;DHT22;4392;47.400;8.062;2022-10-17T15:50:15;22.90;93.10
8711;DHT22;4392;47.400;8.062;2022-10-17T15:52:41;22.90;92.40
8711;DHT22;4392;47.400;8.062;2022-10-17T15:55:10;22.90;92.50
8711;DHT22;4392;47.400;8.062;2022-10-17T15:57:39;22.80;93.90
8711;DHT22;4392;47.400;8.062;2022-10-17T16:00:20;22.80;93.90
8711;DHT22;4392;47.400;8.062;2022-10-17T16:02:46;22.70;94.30
8711;DHT22;4392;47.400;8.062;2022-10-17T16:05:31;22.70;94.90
8711;DHT22;4392;47.400;8.062;2022-10-17T16:07:57;22.60;95.30
8711;DHT22;4392;47.400;8.062;2022-10-17T16:10:23;22.60;95.70
8711;DHT22;4392;47.400;8.062;2022-10-17T16:12:50;22.50;96.30
8711;DHT22;4392;47.400;8.062;2022-10-17T16:15:19;22.40;96.90
8711;DHT22;4392;47.400;8.062;2022-10-17T16:17:53;22.40;98.10
8711;DHT22;4392;47.400;8.062;2022-10-17T16:20:19;22.30;98.40
8711;DHT22;4392;47.400;8.062;2022-10-17T16:22:46;22.30;98.40
8711;DHT22;4392;47.400;8.062;2022-10-17T16:25:23;22.20;99.40
8711;DHT22;4392;47.400;8.062;2022-10-17T16:27:51;22.10;99.90
8711;DHT22;4392;47.400;8.062;2022-10-17T16:30:18;22.00;99.90
8711;DHT22;4392;47.400;8.062;2022-10-17T16:32:45;22.00;99.90
8711;DHT22;4392;47.400;8.062;2022-10-17T16:35:17;21.90;99.90
8711;DHT22;4392;47.400;8.062;2022-10-17T16:37:44;21.90;99.90
8711;DHT22;4392;47.400;8.062;2022-10-17T16:40:10;21.90;99.90
8711;DHT22;4392;47.400;8.062;2022-10-17T16:42:36;21.80;99.90
8711;DHT22;4392;47.400;8.062;2022-10-17T16:45:02;21.80;99.90
8711;DHT22;4392;47.400;8.062;2022-10-17T16:47:28;21.70;99.90
8711;DHT22;4392;47.400;8.062;2022-10-17T16:49:54;21.70;99.90
8711;DHT22;4392;47.400;8.062;2022-10-17T16:52:20;21.60;99.90
8711;DHT22;4392;47.400;8.062;2022-10-17T16:54:46;21.60;99.90
8711;DHT22;4392;47.400;8.062;2022-10-17T16:57:12;21.50;99.90
8711;DHT22;4392;47.400;8.062;2022-10-17T16:59:37;21.50;99.90
8711;DHT22;4392;47.400;8.062;2022-10-17T17:02:03;21.50;99.90
8711;DHT22;4392;47.400;8.062;2022-10-17T17:04:29;21.50;99.90
8711;DHT22;4392;47.400;8.062;2022-10-17T17:06:56;21.60;99.90
8711;DHT22;4392;47.400;8.062;2022-10-17T17:09:24;21.60;99.90
8711;DHT22;4392;47.400;8.062;2022-10-17T17:11:50;21.50;99.90
8711;DHT22;4392;47.400;8.062;2022-10-17T17:14:16;21.40;99.90
8711;DHT22;4392;47.400;8.062;2022-10-17T17:16:42;21.40;99.90
8711;DHT22;4392;47.400;8.062;2022-10-17T17:19:10;21.40;99.90
8711;DHT22;4392;47.400;8.062;2022-10-17T17:21:37;21.40;99.90
8711;DHT22;4392;47.400;8.062;2022-10-17T17:24:03;21.30;99.90
8711;DHT22;4392;47.400;8.062;2022-10-17T17:26:32;21.30;99.90
8711;DHT22;4392;47.400;8.062;2022-10-17T17:29:00;21.20;99.90
8711;DHT22;4392;47.400;8.062;2022-10-17T17:31:28;21.20;99.90
8711;DHT22;4392;47.400;8.062;2022-10-17T17:33:54;21.10;99.90
8711;DHT22;4392;47.400;8.062;2022-10-17T17:36:22;21.00;99.90
8711;DHT22;4392;47.400;8.062;2022-10-17T17:38:50;21.00;99.90
8711;DHT22;4392;47.400;8.062;2022-10-17T17:41:18;20.90;99.90
8711;DHT22;4392;47.400;8.062;2022-10-17T17:43:44;20.90;99.90
8711;DHT22;4392;47.400;8.062;2022-10-17T17:46:11;20.90;99.90
8711;DHT22;4392;47.400;8.062;2022-10-17T17:48:38;20.90;99.90
8711;DHT22;4392;47.400;8.062;2022-10-17T17:51:07;20.90;99.90
8711;DHT22;4392;47.400;8.062;2022-10-17T17:53:33;20.90;99.90
8711;DHT22;4392;47.400;8.062;2022-10-17T17:56:06;20.80;99.90
8711;DHT22;4392;47.400;8.062;2022-10-17T17:58:33;20.80;99.90
8711;DHT22;4392;47.400;8.062;2022-10-17T18:00:59;20.80;99.90
8711;DHT22;4392;47.400;8.062;2022-10-17T18:03:25;20.80;99.90
8711;DHT22;4392;47.400;8.062;2022-10-17T18:05:52;20.70;99.90
8711;DHT22;4392;47.400;8.062;2022-10-17T18:08:18;20.70;99.90
8711;DHT22;4392;47.400;8.062;2022-10-17T18:10:48;20.70;99.90
8711;DHT22;4392;47.400;8.062;2022-10-17T18:13:14;20.70;99.90
8711;DHT22;4392;47.400;8.062;2022-10-17T18:15:41;20.70;99.90
8711;DHT22;4392;47.400;8.062;2022-10-17T18:18:08;20.70;99.90
8711;DHT22;4392;47.400;8.062;2022-10-17T18:20:38;20.70;99.90
8711;DHT22;4392;47.400;8.062;2022-10-17T18:23:03;20.70;99.90
8711;DHT22;4392;47.400;8.062;2022-10-17T18:25:29;20.70;99.90
8711;DHT22;4392;47.400;8.062;2022-10-17T18:28:10;20.70;99.90
8711;DHT22;4392;47.400;8.062;2022-10-17T18:30:37;20.70;99.90
8711;DHT22;4392;47.400;8.062;2022-10-17T18:33:03;20.60;99.90